Kezdőlap
METAR-TAF:

METAR-TAF

Repülőterek :

Portsmouth International Airport at Pease

Portsmouth, New Hampshire, Amerikai Egyesült Államok

földrajzi szélesség: 43-05N, földrajzi hosszúság: 070-49W, magasság: 31 m

Jelenlegi meteorológiai megfigyelések

A jelentés 14 perccel ezelõtt készült, 14:56 UTC
Szélcsend
Hőmérséklet -9°C
Páratartalom 44%
Légköri nyomás 1030 hPa
Látótávolság: 16.1 km
Kevés felhő 20000 lábon

METAR: KPSM 211456Z 00000KT 10SM FEW200 M09/M19 A3041 RMK AO2A SLP301 T10901191

Idő: 10:10 (15:10 UTC)

Előrejelzés

A jelentés 3 órával és 40 perccel ezelõtt készült, 11:30 UTC
Az előrejelzés 21-én 12 óra UTC és 22-én 12 óra UTC között érvényes
Északnyugati szél 5 kt
Látótávolság: 10 km
Kevés felhő 25000 lábon
22-én 0300 órától UTC szerint
Nyugati szél 5 kt
Látótávolság: 10 km
Szakadozott felhőzet 7000 lábon

TAF: KPSM 211130Z 2112/2212 32005KT P6SM FEW250 FM220300 27005KT P6SM BKN070

Meteorológiai megfigyelések és előrejelzések több, mint 4000 repülőtéren (METAR és TAF jelentéseket).

A térképen piros és sárga pontok jelzik az elérhető meteorológiai állomásokat.

Mozgassa az egeret a pont fölött, hogy megjelenjen az állomás neve.

Azután kattintson az időjárási megfigyelések és előrejelzések megtekintéséhez.

A térkép megváltoztatása: kattintson a fekete keresztel jelölt zöld gombra ráközelítéshez, a vonallal jelölt zöld gombra távolításhoz, vagy a zöld nyilakra a szomszédos térképek eléréséhez.


METAR-TAF: